createdAt,value
2022-10-07T00:01:16.571Z,4.30
2022-10-07T00:03:44.981Z,3.10
2022-10-07T00:06:15.217Z,3.10
2022-10-07T00:08:45.977Z,3.13
2022-10-07T00:11:17.304Z,3.57
2022-10-07T00:13:47.348Z,3.33
2022-10-07T00:16:21.038Z,3.13
2022-10-07T00:18:49.390Z,3.10
2022-10-07T00:21:21.076Z,3.50
2022-10-07T00:23:49.990Z,4.67
2022-10-07T00:26:22.981Z,3.20
2022-10-07T00:28:51.753Z,3.40
2022-10-07T00:31:21.895Z,3.60
2022-10-07T00:33:51.372Z,4.20
2022-10-07T00:36:23.702Z,3.80
2022-10-07T00:38:53.888Z,3.17
2022-10-07T00:41:27.897Z,3.67
2022-10-07T00:43:56.635Z,3.23
2022-10-07T00:46:31.086Z,2.87
2022-10-07T00:49:02.798Z,2.67
2022-10-07T00:51:33.694Z,2.77
2022-10-07T00:54:05.036Z,3.33
2022-10-07T00:56:37.619Z,2.90
2022-10-07T00:59:06.909Z,3.30
2022-10-07T01:01:35.609Z,2.70
2022-10-07T01:04:04.844Z,3.83
2022-10-07T01:06:33.301Z,3.60
2022-10-07T01:09:01.743Z,3.10
2022-10-07T01:11:43.379Z,3.80
2022-10-07T01:14:19.782Z,4.37
2022-10-07T01:16:57.521Z,3.50
2022-10-07T01:19:47.024Z,2.93
2022-10-07T01:22:26.168Z,3.60
2022-10-07T01:25:13.140Z,3.00
2022-10-07T01:27:49.593Z,2.87
2022-10-07T01:30:19.418Z,3.33
2022-10-07T01:32:54.170Z,4.03
2022-10-07T01:35:29.164Z,3.17
2022-10-07T01:38:01.517Z,3.50
2022-10-07T01:40:35.965Z,3.30
2022-10-07T01:43:07.331Z,3.30
2022-10-07T01:45:41.767Z,2.80
2022-10-07T01:48:11.127Z,3.00
2022-10-07T01:50:40.907Z,3.77
2022-10-07T01:53:25.481Z,3.17
2022-10-07T01:56:11.953Z,3.40
2022-10-07T01:59:00.994Z,4.30
2022-10-07T02:01:38.996Z,3.03
2022-10-07T02:04:25.579Z,2.80
2022-10-07T02:07:03.207Z,3.40
2022-10-07T02:09:35.752Z,3.93
2022-10-07T02:12:13.317Z,3.37
2022-10-07T02:14:50.669Z,2.90
2022-10-07T02:17:21.816Z,3.77
2022-10-07T02:19:54.537Z,3.33
2022-10-07T02:22:26.184Z,4.03
2022-10-07T02:24:59.034Z,3.47
2022-10-07T02:27:32.891Z,3.20
2022-10-07T02:30:06.309Z,3.83
2022-10-07T02:32:37.813Z,3.70
2022-10-07T02:35:15.015Z,4.10
2022-10-07T02:37:47.851Z,4.20
2022-10-07T02:40:17.412Z,3.17
2022-10-07T02:42:54.429Z,4.80
2022-10-07T02:45:29.569Z,3.80
2022-10-07T02:48:01.912Z,3.70
2022-10-07T02:50:38.543Z,3.40
2022-10-07T02:53:08.760Z,3.80
2022-10-07T02:55:38.495Z,3.30
2022-10-07T02:58:09.647Z,3.10
2022-10-07T03:00:46.020Z,4.07
2022-10-07T03:03:15.850Z,3.50
2022-10-07T03:05:51.045Z,3.40
2022-10-07T03:08:25.526Z,3.70
2022-10-07T03:10:54.208Z,3.20
2022-10-07T03:13:24.952Z,3.33
2022-10-07T03:15:59.450Z,3.03
2022-10-07T03:18:29.389Z,3.17
2022-10-07T03:21:17.135Z,3.53
2022-10-07T03:23:52.219Z,4.17
2022-10-07T03:26:25.811Z,3.37
2022-10-07T03:28:55.348Z,3.37
2022-10-07T03:31:26.457Z,4.20
2022-10-07T03:33:58.379Z,3.80
2022-10-07T03:36:26.974Z,3.03
2022-10-07T03:38:55.913Z,4.07
2022-10-07T03:41:25.343Z,3.17
2022-10-07T03:43:59.212Z,3.63
2022-10-07T03:46:30.236Z,5.47
2022-10-07T03:48:59.138Z,3.20
2022-10-07T03:51:29.115Z,4.03
2022-10-07T03:53:57.772Z,3.60
2022-10-07T03:56:29.102Z,3.30
2022-10-07T03:58:57.440Z,3.50
2022-10-07T04:01:27.276Z,3.00
2022-10-07T04:04:01.611Z,3.10
2022-10-07T04:06:33.896Z,3.60
2022-10-07T04:09:06.149Z,3.03
2022-10-07T04:11:35.310Z,3.60
2022-10-07T04:14:03.776Z,3.63
2022-10-07T04:16:37.794Z,3.60
2022-10-07T04:19:10.018Z,3.70
2022-10-07T04:21:38.439Z,3.80
2022-10-07T04:24:06.984Z,3.60
2022-10-07T04:26:36.976Z,3.70
2022-10-07T04:29:05.454Z,3.93
2022-10-07T04:31:34.733Z,4.77
2022-10-07T04:34:06.889Z,3.60
2022-10-07T04:36:41.043Z,3.80
2022-10-07T04:39:13.529Z,3.63
2022-10-07T04:41:54.832Z,4.10
2022-10-07T04:44:26.538Z,4.53
2022-10-07T04:47:00.520Z,3.87
2022-10-07T04:49:31.482Z,3.77
2022-10-07T04:52:03.408Z,3.70
2022-10-07T04:54:36.724Z,4.40
2022-10-07T04:57:05.197Z,3.57
2022-10-07T04:59:34.543Z,3.80
2022-10-07T05:02:03.552Z,3.80
2022-10-07T05:04:35.500Z,4.10
2022-10-07T05:07:06.102Z,3.63
2022-10-07T05:09:36.155Z,3.60
2022-10-07T05:12:05.190Z,3.03
2022-10-07T05:14:34.013Z,3.47
2022-10-07T05:17:04.159Z,3.60
2022-10-07T05:19:35.235Z,2.80
2022-10-07T05:22:05.918Z,3.87
2022-10-07T05:24:34.481Z,4.33
2022-10-07T05:27:03.713Z,4.43
2022-10-07T05:29:31.964Z,3.70
2022-10-07T05:32:04.780Z,3.00
2022-10-07T05:34:34.130Z,4.00
2022-10-07T05:37:02.634Z,3.37
2022-10-07T05:39:32.318Z,3.20
2022-10-07T05:42:07.842Z,3.80
2022-10-07T05:44:42.915Z,3.57
2022-10-07T05:47:12.410Z,3.77
2022-10-07T05:49:41.519Z,3.63
2022-10-07T05:52:09.911Z,4.40
2022-10-07T05:54:39.903Z,3.47
2022-10-07T05:57:09.378Z,3.97
2022-10-07T05:59:38.113Z,4.17
2022-10-07T06:02:06.687Z,2.90
2022-10-07T06:04:35.509Z,3.77
2022-10-07T06:07:04.222Z,3.00
2022-10-07T06:09:50.642Z,3.17
2022-10-07T06:12:38.814Z,4.27
2022-10-07T06:15:12.464Z,3.90
2022-10-07T06:17:45.312Z,4.17
2022-10-07T06:20:16.455Z,3.60
2022-10-07T06:22:46.471Z,4.63
2022-10-07T06:25:16.726Z,3.90
2022-10-07T06:27:53.449Z,3.70
2022-10-07T06:30:25.472Z,3.60
2022-10-07T06:32:54.943Z,4.13
2022-10-07T06:35:23.744Z,3.97
2022-10-07T06:37:54.466Z,4.37
2022-10-07T06:40:23.180Z,4.03
2022-10-07T06:42:52.783Z,3.53
2022-10-07T06:45:26.035Z,3.93
2022-10-07T06:47:55.325Z,3.30
2022-10-07T06:50:25.316Z,3.60
2022-10-07T06:52:54.204Z,3.93
2022-10-07T06:55:22.856Z,4.13
2022-10-07T06:57:52.486Z,4.13
2022-10-07T07:00:22.628Z,3.77
2022-10-07T07:02:51.554Z,4.30
2022-10-07T07:05:20.679Z,3.47
2022-10-07T07:07:49.715Z,4.07
2022-10-07T07:10:20.581Z,4.17
2022-10-07T07:12:55.538Z,3.73
2022-10-07T07:15:24.549Z,3.73
2022-10-07T07:17:53.026Z,4.17
2022-10-07T07:20:22.054Z,3.97
2022-10-07T07:22:52.554Z,3.70
2022-10-07T07:25:21.118Z,3.87
2022-10-07T07:27:53.802Z,4.03
2022-10-07T07:30:26.710Z,6.67
2022-10-07T07:32:57.299Z,3.63
2022-10-07T07:35:30.258Z,4.07
2022-10-07T07:37:59.136Z,3.40
2022-10-07T07:40:29.004Z,3.40
2022-10-07T07:42:57.385Z,5.20
2022-10-07T07:45:27.901Z,3.70
2022-10-07T07:47:57.556Z,3.80
2022-10-07T07:50:27.372Z,4.07
2022-10-07T07:53:00.222Z,4.60
2022-10-07T07:55:28.938Z,3.60
2022-10-07T07:57:57.572Z,3.80
2022-10-07T08:00:27.721Z,5.00
2022-10-07T08:03:04.298Z,4.23
2022-10-07T08:05:35.873Z,4.97
2022-10-07T08:08:04.839Z,3.60
2022-10-07T08:10:33.266Z,4.27
2022-10-07T08:13:01.933Z,4.07
2022-10-07T08:15:32.383Z,3.50
2022-10-07T08:18:00.870Z,3.43
2022-10-07T08:20:29.419Z,4.07
2022-10-07T08:22:59.876Z,3.13
2022-10-07T08:25:29.671Z,3.60
2022-10-07T08:27:59.966Z,3.90
2022-10-07T08:30:31.584Z,3.47
2022-10-07T08:33:01.571Z,3.87
2022-10-07T08:35:30.120Z,4.97
2022-10-07T08:37:58.597Z,3.40
2022-10-07T08:40:27.079Z,3.97
2022-10-07T08:42:55.544Z,4.03
2022-10-07T08:45:32.650Z,4.80
2022-10-07T08:48:06.509Z,3.73
2022-10-07T08:50:46.820Z,3.90
2022-10-07T08:53:21.528Z,3.40
2022-10-07T08:55:55.051Z,3.83
2022-10-07T08:58:50.620Z,3.43
2022-10-07T09:01:34.473Z,4.10
2022-10-07T09:04:18.402Z,3.77
2022-10-07T09:06:54.451Z,3.23
2022-10-07T09:09:27.647Z,2.93
2022-10-07T09:11:57.625Z,3.43
2022-10-07T09:14:30.019Z,3.63
2022-10-07T09:17:05.994Z,4.00
2022-10-07T09:19:41.962Z,4.20
2022-10-07T09:22:19.425Z,3.20
2022-10-07T09:24:49.367Z,3.60
2022-10-07T09:27:20.223Z,3.57
2022-10-07T09:29:49.163Z,3.20
2022-10-07T09:32:19.906Z,3.80
2022-10-07T09:34:49.715Z,3.20
2022-10-07T09:37:21.914Z,3.53
2022-10-07T09:39:52.116Z,3.60
2022-10-07T09:42:35.592Z,3.30
2022-10-07T09:45:07.332Z,3.70
2022-10-07T09:47:40.543Z,3.50
2022-10-07T09:50:32.112Z,3.00
2022-10-07T09:53:00.599Z,4.37
2022-10-07T09:55:37.760Z,3.57
2022-10-07T09:58:07.984Z,3.70
2022-10-07T10:00:44.471Z,3.47
2022-10-07T10:03:13.744Z,4.27
2022-10-07T10:05:54.533Z,3.50
2022-10-07T10:08:26.224Z,3.83
2022-10-07T10:10:56.948Z,3.10
2022-10-07T10:13:34.602Z,3.93
2022-10-07T10:16:04.162Z,4.50
2022-10-07T10:18:36.612Z,4.47
2022-10-07T10:21:30.380Z,3.87
2022-10-07T10:24:00.624Z,3.30
2022-10-07T10:26:42.104Z,4.17
2022-10-07T10:29:18.647Z,4.00
2022-10-07T10:32:04.355Z,3.70
2022-10-07T10:34:42.715Z,3.70
2022-10-07T10:37:20.535Z,4.27
2022-10-07T10:39:59.648Z,3.57
2022-10-07T10:42:37.115Z,3.00
2022-10-07T10:45:18.444Z,3.80
2022-10-07T10:48:06.021Z,4.53
2022-10-07T10:50:43.738Z,3.80
2022-10-07T10:53:29.457Z,3.67
2022-10-07T10:56:08.702Z,3.87
2022-10-07T10:58:53.366Z,3.37
2022-10-07T11:01:30.472Z,3.60
2022-10-07T11:04:23.116Z,4.20
2022-10-07T11:06:58.540Z,5.10
2022-10-07T11:09:38.680Z,4.07
2022-10-07T11:12:18.381Z,3.40
2022-10-07T11:14:54.614Z,3.70
2022-10-07T11:17:31.567Z,3.50
2022-10-07T11:20:08.510Z,3.17
2022-10-07T11:22:43.326Z,3.47
2022-10-07T11:25:24.863Z,3.80
2022-10-07T11:27:56.986Z,3.57
2022-10-07T11:30:29.162Z,3.63
2022-10-07T11:33:02.454Z,4.10
2022-10-07T11:35:33.979Z,3.40
2022-10-07T11:38:07.606Z,4.27
2022-10-07T11:40:45.937Z,3.67
2022-10-07T11:43:20.522Z,3.33
2022-10-07T11:45:53.315Z,3.67
2022-10-07T11:48:26.476Z,4.00
2022-10-07T11:51:00.906Z,3.37
2022-10-07T11:53:33.896Z,3.57
2022-10-07T11:56:07.171Z,3.77
2022-10-07T11:58:38.934Z,4.57
2022-10-07T12:01:55.351Z,3.53
2022-10-07T12:04:40.433Z,4.00
2022-10-07T12:07:38.298Z,3.70
2022-10-07T12:10:23.436Z,3.23
2022-10-07T12:12:55.910Z,4.10
2022-10-07T12:15:31.041Z,3.40
2022-10-07T12:18:29.936Z,4.20
2022-10-07T12:21:08.250Z,2.93
2022-10-07T12:23:41.812Z,3.10
2022-10-07T12:26:44.741Z,3.83
2022-10-07T12:29:30.322Z,3.33
2022-10-07T12:31:59.162Z,3.43
2022-10-07T12:34:37.743Z,3.50
2022-10-07T12:37:42.228Z,3.77
2022-10-07T12:40:17.757Z,3.93
2022-10-07T12:42:55.959Z,3.23
2022-10-07T12:45:28.904Z,3.40
2022-10-07T12:48:01.862Z,3.30
2022-10-07T12:50:33.652Z,3.00
2022-10-07T12:53:04.276Z,3.77
2022-10-07T12:55:39.037Z,3.40
2022-10-07T12:58:43.148Z,2.80
2022-10-07T13:01:28.283Z,3.63
2022-10-07T13:04:19.246Z,3.10
2022-10-07T13:07:29.095Z,3.00
2022-10-07T13:10:25.263Z,3.60
2022-10-07T13:12:57.261Z,2.93
2022-10-07T13:15:35.600Z,3.10
2022-10-07T13:18:14.317Z,3.50
2022-10-07T13:21:12.325Z,3.13
2022-10-07T13:23:41.012Z,3.47
2022-10-07T13:26:14.680Z,3.13
2022-10-07T13:28:48.447Z,2.90
2022-10-07T13:31:20.466Z,3.00
2022-10-07T13:33:51.667Z,3.00
2022-10-07T13:36:23.074Z,2.87
2022-10-07T13:38:53.875Z,3.60
2022-10-07T13:41:28.291Z,2.90
2022-10-07T13:44:00.515Z,2.67
2022-10-07T13:46:31.325Z,3.57
2022-10-07T13:49:02.322Z,3.83
2022-10-07T13:51:33.986Z,3.40
2022-10-07T13:54:08.160Z,3.67
2022-10-07T13:56:40.990Z,2.73
2022-10-07T13:59:16.096Z,3.20
2022-10-07T14:01:47.549Z,2.63
2022-10-07T14:04:35.007Z,2.87
2022-10-07T14:07:16.999Z,3.47
2022-10-07T14:09:49.172Z,3.60
2022-10-07T14:12:23.631Z,3.73
2022-10-07T14:14:56.307Z,3.30
2022-10-07T14:17:33.002Z,3.33
2022-10-07T14:20:07.428Z,2.60
2022-10-07T14:22:41.237Z,3.23
2022-10-07T14:25:19.731Z,3.50
2022-10-07T14:28:16.802Z,2.43
2022-10-07T14:31:04.838Z,2.50
2022-10-07T14:34:01.112Z,3.20
2022-10-07T14:36:31.372Z,2.60
2022-10-07T14:39:04.026Z,2.97
2022-10-07T14:41:33.506Z,2.70
2022-10-07T14:44:04.068Z,3.27
2022-10-07T14:46:32.572Z,2.80
2022-10-07T14:49:01.345Z,2.87
2022-10-07T14:51:31.460Z,2.20
2022-10-07T14:54:05.201Z,2.87
2022-10-07T14:56:35.391Z,2.23
2022-10-07T14:59:03.897Z,3.10
2022-10-07T15:01:32.574Z,2.70
2022-10-07T15:04:01.102Z,2.97
2022-10-07T15:06:31.121Z,3.10
2022-10-07T15:08:59.628Z,2.70
2022-10-07T15:11:28.336Z,2.77
2022-10-07T15:13:56.822Z,2.97
2022-10-07T15:16:27.943Z,2.30
2022-10-07T15:18:56.591Z,3.20
2022-10-07T15:21:25.201Z,2.77
2022-10-07T15:23:55.530Z,2.50
2022-10-07T15:26:25.549Z,3.17
2022-10-07T15:28:55.394Z,3.13
2022-10-07T15:31:25.075Z,2.77
2022-10-07T15:33:57.242Z,3.00
2022-10-07T15:36:26.404Z,3.17
2022-10-07T15:38:56.254Z,2.60
2022-10-07T15:41:36.051Z,3.10
2022-10-07T15:44:06.451Z,2.77
2022-10-07T15:46:35.415Z,2.93
2022-10-07T15:49:04.660Z,3.40
2022-10-07T15:51:35.655Z,8.97
2022-10-07T15:54:06.616Z,3.73
2022-10-07T15:56:35.389Z,3.77
2022-10-07T15:59:03.832Z,2.80
2022-10-07T16:01:32.888Z,3.63
2022-10-07T16:04:02.720Z,2.97
2022-10-07T16:06:33.407Z,3.27
2022-10-07T16:09:02.723Z,2.70
2022-10-07T16:11:34.184Z,3.90
2022-10-07T16:14:03.255Z,3.67
2022-10-07T16:16:32.861Z,2.90
2022-10-07T16:19:01.873Z,2.77
2022-10-07T16:21:32.732Z,3.60
2022-10-07T16:24:04.113Z,3.60
2022-10-07T16:26:35.968Z,3.13
2022-10-07T16:29:24.070Z,3.00
2022-10-07T16:31:58.217Z,3.10
2022-10-07T16:34:28.224Z,3.70
2022-10-07T16:36:58.069Z,3.60
2022-10-07T16:39:26.465Z,2.90
2022-10-07T16:41:57.019Z,3.37
2022-10-07T16:44:25.853Z,3.87
2022-10-07T16:46:57.105Z,3.33
2022-10-07T16:49:30.360Z,4.97
2022-10-07T16:51:59.888Z,3.90
2022-10-07T16:54:30.439Z,2.70
2022-10-07T16:57:00.318Z,6.07
2022-10-07T16:59:28.742Z,3.93
2022-10-07T17:02:00.315Z,3.40
2022-10-07T17:04:28.801Z,4.77
2022-10-07T17:06:57.907Z,3.70
2022-10-07T17:09:27.155Z,3.60
2022-10-07T17:11:57.455Z,3.67
2022-10-07T17:14:27.399Z,3.17
2022-10-07T17:16:58.362Z,2.80
2022-10-07T17:19:29.187Z,3.17
2022-10-07T17:21:59.811Z,3.40
2022-10-07T17:24:31.306Z,3.00
2022-10-07T17:26:59.806Z,2.87
2022-10-07T17:29:30.904Z,2.40
2022-10-07T17:31:59.473Z,2.50
2022-10-07T17:34:27.914Z,2.90
2022-10-07T17:36:58.883Z,3.27
2022-10-07T17:39:27.525Z,3.23
2022-10-07T17:41:55.972Z,2.90
2022-10-07T17:44:24.460Z,2.47
2022-10-07T17:46:56.840Z,3.03
2022-10-07T17:49:25.771Z,3.43
2022-10-07T17:51:55.949Z,3.57
2022-10-07T17:54:24.614Z,3.63
2022-10-07T17:56:53.194Z,3.23
2022-10-07T17:59:21.576Z,3.97
2022-10-07T18:01:50.083Z,3.00
2022-10-07T18:04:24.768Z,3.43
2022-10-07T18:06:53.986Z,3.33
2022-10-07T18:09:24.176Z,3.30
2022-10-07T18:12:10.241Z,4.40
2022-10-07T18:14:56.090Z,3.23
2022-10-07T18:17:25.145Z,3.30
2022-10-07T18:19:55.203Z,2.90
2022-10-07T18:22:24.447Z,4.27
2022-10-07T18:24:57.213Z,3.13
2022-10-07T18:27:27.248Z,4.43
2022-10-07T18:29:55.784Z,3.20
2022-10-07T18:32:24.642Z,3.90
2022-10-07T18:34:56.779Z,3.67
2022-10-07T18:37:27.550Z,4.80
2022-10-07T18:39:56.035Z,3.33
2022-10-07T18:42:24.333Z,3.70
2022-10-07T18:44:52.968Z,3.43
2022-10-07T18:47:21.580Z,3.83
2022-10-07T18:49:51.773Z,4.03
2022-10-07T18:52:21.746Z,4.20
2022-10-07T18:54:50.275Z,3.70
2022-10-07T18:57:19.716Z,4.50
2022-10-07T18:59:48.115Z,3.53
2022-10-07T19:02:16.744Z,3.80
2022-10-07T19:04:48.074Z,4.30
2022-10-07T19:07:16.458Z,3.50
2022-10-07T19:09:46.348Z,4.33
2022-10-07T19:12:28.625Z,4.70
2022-10-07T19:14:57.793Z,4.00
2022-10-07T19:17:26.813Z,4.90
2022-10-07T19:20:01.674Z,4.30
2022-10-07T19:22:30.378Z,3.50
2022-10-07T19:25:23.054Z,3.40
2022-10-07T19:27:51.461Z,5.10
2022-10-07T19:30:20.001Z,4.87
2022-10-07T19:32:48.569Z,4.33
2022-10-07T19:35:17.110Z,4.40
2022-10-07T19:37:45.734Z,4.30
2022-10-07T19:40:16.169Z,4.17
2022-10-07T19:42:44.578Z,4.83
2022-10-07T19:45:14.202Z,4.70
2022-10-07T19:47:42.783Z,5.67
2022-10-07T19:50:12.243Z,4.97
2022-10-07T19:52:40.685Z,6.00
2022-10-07T19:55:10.134Z,6.27
2022-10-07T19:57:40.076Z,5.60
2022-10-07T20:00:12.971Z,5.33
2022-10-07T20:02:41.412Z,6.47
2022-10-07T20:05:10.250Z,5.03
2022-10-07T20:07:39.065Z,6.30
2022-10-07T20:10:08.807Z,5.93
2022-10-07T20:12:40.044Z,6.47
2022-10-07T20:15:11.754Z,5.67
2022-10-07T20:17:40.428Z,5.73
2022-10-07T20:20:10.098Z,6.23
2022-10-07T20:22:38.913Z,7.00
2022-10-07T20:25:09.446Z,6.63
2022-10-07T20:27:37.801Z,6.60
2022-10-07T20:30:17.663Z,5.63
2022-10-07T20:32:48.087Z,6.87
2022-10-07T20:35:19.848Z,5.80
2022-10-07T20:37:48.238Z,6.30
2022-10-07T20:40:34.487Z,5.67
2022-10-07T20:43:03.434Z,5.60
2022-10-07T20:45:52.057Z,6.00
2022-10-07T20:48:22.066Z,6.47
2022-10-07T20:50:51.228Z,6.53
2022-10-07T20:53:20.773Z,6.83
2022-10-07T20:55:49.483Z,5.43
2022-10-07T20:58:18.221Z,4.90
2022-10-07T21:00:46.726Z,4.20
2022-10-07T21:03:16.831Z,5.53
2022-10-07T21:05:46.825Z,5.27
2022-10-07T21:08:15.918Z,5.47
2022-10-07T21:10:44.324Z,4.60
2022-10-07T21:13:14.861Z,4.67
2022-10-07T21:15:43.299Z,5.37
2022-10-07T21:18:11.708Z,4.50
2022-10-07T21:20:56.508Z,5.37
2022-10-07T21:23:28.311Z,4.97
2022-10-07T21:26:00.745Z,4.77
2022-10-07T21:28:32.687Z,4.23
2022-10-07T21:31:03.689Z,4.70
2022-10-07T21:33:33.865Z,4.40
2022-10-07T21:36:05.692Z,4.60
2022-10-07T21:38:34.549Z,4.93
2022-10-07T21:41:13.196Z,3.97
2022-10-07T21:43:42.125Z,5.13
2022-10-07T21:46:11.348Z,4.00
2022-10-07T21:48:39.829Z,4.57
2022-10-07T21:51:10.058Z,4.20
2022-10-07T21:53:38.803Z,5.03
2022-10-07T21:56:08.629Z,4.53
2022-10-07T21:58:37.282Z,4.30
2022-10-07T22:01:07.163Z,4.10
2022-10-07T22:03:35.749Z,4.10
2022-10-07T22:06:04.945Z,3.60
2022-10-07T22:08:37.547Z,3.80
2022-10-07T22:11:08.350Z,4.20
2022-10-07T22:13:38.875Z,4.03
2022-10-07T22:16:12.762Z,3.73
2022-10-07T22:18:45.353Z,4.47
2022-10-07T22:21:16.472Z,4.27
2022-10-07T22:23:50.569Z,3.80
2022-10-07T22:26:20.369Z,4.53
2022-10-07T22:28:49.678Z,4.43
2022-10-07T22:31:19.226Z,5.10
2022-10-07T22:33:52.145Z,4.80
2022-10-07T22:36:20.511Z,3.97
2022-10-07T22:38:50.384Z,5.03
2022-10-07T22:41:20.526Z,4.53
2022-10-07T22:43:49.721Z,5.13
2022-10-07T22:46:26.314Z,5.67
2022-10-07T22:48:56.595Z,4.97
2022-10-07T22:51:27.962Z,5.23
2022-10-07T22:54:07.156Z,4.70
2022-10-07T22:56:36.181Z,4.63
2022-10-07T22:59:04.514Z,4.23
2022-10-07T23:01:33.021Z,5.57
2022-10-07T23:04:03.264Z,4.23
2022-10-07T23:06:33.571Z,4.87
2022-10-07T23:09:04.803Z,6.10
2022-10-07T23:11:33.708Z,4.77
2022-10-07T23:14:02.173Z,5.50
2022-10-07T23:16:32.458Z,4.20
2022-10-07T23:19:01.255Z,4.10
2022-10-07T23:21:33.841Z,4.40
2022-10-07T23:24:07.753Z,4.10
2022-10-07T23:26:37.540Z,4.30
2022-10-07T23:29:07.710Z,4.40
2022-10-07T23:31:36.284Z,3.57
2022-10-07T23:34:05.284Z,4.00
2022-10-07T23:36:34.946Z,4.50
2022-10-07T23:39:05.616Z,3.93
2022-10-07T23:41:34.567Z,4.43
2022-10-07T23:44:04.301Z,4.20
2022-10-07T23:46:35.708Z,4.70
2022-10-07T23:49:04.850Z,3.93
2022-10-07T23:51:34.299Z,4.20
2022-10-07T23:54:05.179Z,4.57
2022-10-07T23:56:34.023Z,3.60
2022-10-07T23:59:03.060Z,4.57
